Time,TemperatureF,DewpointF,PressureIn,WindDirection,WindDirectionDegrees,WindSpeedMPH,WindSpeedGustMPH,Humidity,HourlyPrecipIn,Conditions,Clouds,dailyrainin,SoftwareType,DateUTC
2013-05-04 00:01:00,59.5,54.3,29.93,ENE,76,5.0,7.0,83,0.00,OVC,,0.00,WeatherDisplay:10.37,2013-05-04 04:01:00,
2013-05-04 00:02:00,59.5,54.0,29.93,ENE,66,5.8,5.8,82,0.00,OVC,,0.00,WeatherDisplay:10.37,2013-05-04 04:02:00,
2013-05-04 00:07:00,59.4,53.9,29.93,East,88,8.1,8.1,82,0.00,OVC,,0.00,WeatherDisplay:10.37,2013-05-04 04:07:00,
2013-05-04 00:12:00,59.4,53.6,29.94,East,84,8.1,8.1,81,0.00,OVC,,0.00,WeatherDisplay:10.37,2013-05-04 04:12:00,
2013-05-04 00:17:00,59.4,53.6,29.93,ENE,65,6.0,6.0,81,0.00,OVC,,0.00,WeatherDisplay:10.37,2013-05-04 04:17:00,
2013-05-04 00:22:00,59.3,53.5,29.93,ESE,104,8.1,8.1,81,0.00,OVC,,0.00,WeatherDisplay:10.37,2013-05-04 04:22:00,
2013-05-04 00:27:00,59.3,53.8,29.93,ENE,65,4.6,4.6,82,0.00,OVC,,0.00,WeatherDisplay:10.37,2013-05-04 04:27:00,
2013-05-04 00:32:00,59.2,53.7,29.93,East,88,4.6,4.6,82,0.00,OVC,,0.00,WeatherDisplay:10.37,2013-05-04 04:32:00,
2013-05-04 00:37:00,59.1,53.3,29.93,NE,37,10.4,10.4,81,0.00,OVC,,0.00,WeatherDisplay:10.37,2013-05-04 04:37:00,
2013-05-04 00:42:00,59.2,53.4,29.92,NE,48,6.9,6.9,81,0.00,OVC,,0.00,WeatherDisplay:10.37,2013-05-04 04:42:00,
2013-05-04 00:47:00,59.2,53.4,29.92,ENE,62,8.1,8.1,81,0.00,OVC,,0.00,WeatherDisplay:10.37,2013-05-04 04:47:00,
2013-05-04 00:52:00,59.3,53.5,29.92,East,85,5.8,5.8,81,0.00,OVC,,0.00,WeatherDisplay:10.37,2013-05-04 04:52:00,
2013-05-04 00:57:00,59.2,53.7,29.92,ENE,73,3.5,3.5,82,0.00,OVC,,0.00,WeatherDisplay:10.37,2013-05-04 04:57:00,
2013-05-04 01:02:00,59.1,53.6,29.92,NE,55,3.5,3.5,82,0.00,OVC,,0.00,WeatherDisplay:10.37,2013-05-04 05:02:00,
2013-05-04 01:07:00,59.2,53.7,29.92,ESE,123,3.5,3.5,82,0.00,OVC,,0.00,WeatherDisplay:10.37,2013-05-04 05:07:00,
2013-05-04 01:12:00,59.2,53.7,29.92,ENE,65,4.6,4.6,82,0.00,OVC,,0.00,WeatherDisplay:10.37,2013-05-04 05:12:00,
2013-05-04 01:17:00,59.2,54.0,29.92,NE,44,4.0,4.0,83,0.00,OVC,,0.00,WeatherDisplay:10.37,2013-05-04 05:17:00,
2013-05-04 01:22:00,59.2,53.7,29.92,ENE,61,9.2,9.2,82,0.00,OVC,,0.00,WeatherDisplay:10.37,2013-05-04 05:22:00,
2013-05-04 01:27:00,59.2,54.0,29.91,ESE,114,3.5,3.5,83,0.00,OVC,,0.00,WeatherDisplay:10.37,2013-05-04 05:27:00,
2013-05-04 01:32:00,59.2,54.0,29.91,East,79,3.5,3.5,83,0.00,OVC,,0.00,WeatherDisplay:10.37,2013-05-04 05:32:00,
2013-05-04 01:37:00,59.2,54.0,29.91,NE,49,5.8,5.8,83,0.00,OVC,,0.00,WeatherDisplay:10.37,2013-05-04 05:37:00,
2013-05-04 01:42:00,59.3,54.1,29.91,NE,49,8.1,8.1,83,0.00,OVC,,0.00,WeatherDisplay:10.37,2013-05-04 05:42:00,
2013-05-04 01:47:00,59.2,54.0,29.90,East,89,6.0,6.0,83,0.00,OVC,,0.00,WeatherDisplay:10.37,2013-05-04 05:47:00,
2013-05-04 01:52:00,59.2,54.4,29.90,East,84,4.6,4.6,84,0.00,OVC,,0.00,WeatherDisplay:10.37,2013-05-04 05:52:00,
2013-05-04 01:57:00,59.1,54.3,29.90,NE,48,3.5,3.5,84,0.00,OVC,,0.00,WeatherDisplay:10.37,2013-05-04 05:57:00,
2013-05-04 02:02:00,59.1,54.3,29.90,NNE,20,3.5,3.5,84,0.00,OVC,,0.00,WeatherDisplay:10.37,2013-05-04 06:02:00,
2013-05-04 02:07:00,59.0,54.2,29.90,NE,45,9.0,9.0,84,0.00,OVC,,0.00,WeatherDisplay:10.37,2013-05-04 06:07:00,
2013-05-04 02:12:00,59.0,54.2,29.89,ENE,78,3.5,3.5,84,0.00,OVC,,0.00,WeatherDisplay:10.37,2013-05-04 06:12:00,
2013-05-04 02:17:00,58.9,54.4,29.89,ENE,78,3.5,3.5,85,0.00,OVC,,0.00,WeatherDisplay:10.37,2013-05-04 06:17:00,
2013-05-04 02:22:00,58.8,54.0,29.89,East,82,5.8,5.8,84,0.00,OVC,,0.00,WeatherDisplay:10.37,2013-05-04 06:22:00,
2013-05-04 02:27:00,58.8,54.0,29.89,NE,51,6.9,6.9,84,0.00,OVC,,0.00,WeatherDisplay:10.37,2013-05-04 06:27:00,
2013-05-04 02:32:00,58.7,53.9,29.89,East,92,3.5,3.5,84,0.00,OVC,,0.00,WeatherDisplay:10.37,2013-05-04 06:32:00,
2013-05-04 02:37:00,58.7,53.9,29.88,ENE,76,3.5,3.5,84,0.00,OVC,,0.00,WeatherDisplay:10.37,2013-05-04 06:37:00,
2013-05-04 02:42:00,58.7,53.5,29.88,NE,42,11.5,11.5,83,0.00,OVC,,0.00,WeatherDisplay:10.37,2013-05-04 06:42:00,
2013-05-04 02:47:00,58.7,53.9,29.88,ENE,63,3.5,3.5,84,0.00,OVC,,0.00,WeatherDisplay:10.37,2013-05-04 06:47:00,
2013-05-04 02:52:00,58.6,53.5,29.88,ENE,77,4.6,4.6,83,0.00,OVC,,0.00,WeatherDisplay:10.37,2013-05-04 06:52:00,
2013-05-04 02:57:00,58.6,53.5,29.88,NNE,20,3.0,3.0,83,0.00,OVC,,0.00,WeatherDisplay:10.37,2013-05-04 06:57:00,
2013-05-04 03:02:00,58.6,53.5,29.88,NE,53,4.6,4.6,83,0.00,OVC,,0.00,WeatherDisplay:10.37,2013-05-04 07:02:00,
2013-05-04 03:07:00,58.5,53.4,29.88,East,80,3.5,3.5,83,0.00,OVC,,0.00,WeatherDisplay:10.37,2013-05-04 07:07:00,
2013-05-04 03:12:00,58.5,53.4,29.88,ENE,67,3.5,3.5,83,0.00,OVC,,0.00,WeatherDisplay:10.37,2013-05-04 07:12:00,
2013-05-04 03:17:00,58.5,53.4,29.87,East,88,3.5,3.5,83,0.00,OVC,,0.00,WeatherDisplay:10.37,2013-05-04 07:17:00,
2013-05-04 03:22:00,58.4,52.9,29.88,NE,46,4.6,4.6,82,0.00,OVC,,0.00,WeatherDisplay:10.37,2013-05-04 07:22:00,
2013-05-04 03:27:00,58.4,53.3,29.88,East,82,3.5,3.5,83,0.00,OVC,,0.00,WeatherDisplay:10.37,2013-05-04 07:27:00,
2013-05-04 03:32:00,58.3,52.8,29.88,NE,53,7.0,7.0,82,0.00,OVC,,0.00,WeatherDisplay:10.37,2013-05-04 07:32:00,
2013-05-04 03:37:00,58.3,52.8,29.88,SE,145,5.8,5.8,82,0.00,OVC,,0.00,WeatherDisplay:10.37,2013-05-04 07:37:00,
2013-05-04 03:42:00,58.2,52.7,29.88,NE,53,4.6,4.6,82,0.00,OVC,,0.00,WeatherDisplay:10.37,2013-05-04 07:42:00,
2013-05-04 03:47:00,58.2,52.7,29.88,NE,55,3.5,3.5,82,0.00,OVC,,0.00,WeatherDisplay:10.37,2013-05-04 07:47:00,
2013-05-04 03:52:00,58.0,52.2,29.87,NE,48,8.1,8.1,81,0.00,OVC,,0.00,WeatherDisplay:10.37,2013-05-04 07:52:00,
2013-05-04 03:57:00,58.0,52.2,29.87,East,88,3.5,3.5,81,0.00,OVC,,0.00,WeatherDisplay:10.37,2013-05-04 07:57:00,
2013-05-04 04:02:00,57.9,52.1,29.88,East,80,8.1,8.1,81,0.00,OVC,,0.00,WeatherDisplay:10.37,2013-05-04 08:02:00,
2013-05-04 04:07:00,57.7,51.9,29.88,East,79,3.5,3.5,81,0.00,OVC,,0.00,WeatherDisplay:10.37,2013-05-04 08:07:00,
2013-05-04 04:12:00,57.6,52.1,29.88,ENE,73,5.8,5.8,82,0.00,OVC,,0.00,WeatherDisplay:10.37,2013-05-04 08:12:00,
2013-05-04 04:17:00,57.4,51.6,29.88,SE,130,8.1,8.1,81,0.00,OVC,,0.00,WeatherDisplay:10.37,2013-05-04 08:17:00,
2013-05-04 04:22:00,57.2,52.1,29.88,SE,139,5.0,5.0,83,0.00,OVC,,0.00,WeatherDisplay:10.37,2013-05-04 08:22:00,
2013-05-04 04:27:00,56.8,52.0,29.89,East,100,7.0,7.0,84,0.00,OVC,,0.00,WeatherDisplay:10.37,2013-05-04 08:27:00,
2013-05-04 04:32:00,56.4,51.6,29.89,ESE,110,11.5,11.5,84,0.00,OVC,,0.00,WeatherDisplay:10.37,2013-05-04 08:32:00,
2013-05-04 04:37:00,56.0,51.6,29.89,ENE,69,5.8,5.8,85,0.00,OVC,,0.00,WeatherDisplay:10.37,2013-05-04 08:37:00,
2013-05-04 04:42:00,55.7,51.9,29.89,ENE,65,4.0,4.0,87,0.00,OVC,,0.00,WeatherDisplay:10.37,2013-05-04 08:42:00,
2013-05-04 04:47:00,55.3,51.8,29.89,NE,43,3.5,3.5,88,0.00,OVC,,0.00,WeatherDisplay:10.37,2013-05-04 08:47:00,
2013-05-04 04:52:00,55.0,51.8,29.89,SE,134,5.0,5.0,89,0.00,OVC,,0.00,WeatherDisplay:10.37,2013-05-04 08:52:00,
2013-05-04 04:57:00,54.8,51.6,29.88,East,99,3.5,3.5,89,0.00,OVC,,0.00,WeatherDisplay:10.37,2013-05-04 08:57:00,
2013-05-04 05:02:00,54.6,51.4,29.89,ENE,71,2.3,2.3,89,0.00,OVC,,0.00,WeatherDisplay:10.37,2013-05-04 09:02:00,
2013-05-04 05:07:00,54.4,51.2,29.89,ENE,66,3.5,3.5,89,0.00,OVC,,0.00,WeatherDisplay:10.37,2013-05-04 09:07:00,
2013-05-04 05:12:00,54.3,51.4,29.89,ENE,57,4.6,4.6,90,0.00,OVC,,0.00,WeatherDisplay:10.37,2013-05-04 09:12:00,
2013-05-04 05:17:00,54.2,51.3,29.89,ENE,64,4.6,4.6,90,0.00,OVC,,0.00,WeatherDisplay:10.37,2013-05-04 09:17:00,
2013-05-04 05:22:00,54.1,51.5,29.89,East,82,5.8,5.8,91,0.00,OVC,,0.00,WeatherDisplay:10.37,2013-05-04 09:22:00,
2013-05-04 05:27:00,53.9,51.3,29.89,ENE,71,3.5,3.5,91,0.01,RA,,0.01,WeatherDisplay:10.37,2013-05-04 09:27:00,
2013-05-04 05:32:00,53.8,51.5,29.89,East,92,5.0,5.0,92,0.01,RA,,0.01,WeatherDisplay:10.37,2013-05-04 09:32:00,
2013-05-04 05:37:00,53.6,51.3,29.89,ESE,108,4.6,4.6,92,0.01,RA,,0.01,WeatherDisplay:10.37,2013-05-04 09:37:00,
2013-05-04 05:42:00,53.4,51.1,29.89,ESE,102,5.0,5.0,92,0.01,OVC,,0.01,WeatherDisplay:10.37,2013-05-04 09:42:00,
2013-05-04 05:47:00,53.2,50.9,29.89,ENE,66,3.5,3.5,92,0.02,RA,,0.02,WeatherDisplay:10.37,2013-05-04 09:47:00,
2013-05-04 05:52:00,53.0,50.7,29.89,ENE,67,2.3,2.3,92,0.02,RA,,0.02,WeatherDisplay:10.37,2013-05-04 09:52:00,
2013-05-04 05:57:00,52.9,50.9,29.89,East,90,3.5,3.5,93,0.02,RA,,0.02,WeatherDisplay:10.37,2013-05-04 09:57:00,
2013-05-04 06:02:00,52.8,50.8,29.90,East,89,6.9,6.9,93,0.02,OVC,,0.02,WeatherDisplay:10.37,2013-05-04 10:02:00,
2013-05-04 06:07:00,52.4,50.1,29.90,ENE,76,2.3,2.3,92,0.02,OVC,,0.02,WeatherDisplay:10.37,2013-05-04 10:07:00,
2013-05-04 06:12:00,52.2,49.9,29.90,NE,56,3.5,3.5,92,0.02,-RA,,0.02,WeatherDisplay:10.37,2013-05-04 10:12:00,
2013-05-04 06:17:00,51.9,49.6,29.90,East,83,3.5,3.5,92,0.02,-RA,,0.02,WeatherDisplay:10.37,2013-05-04 10:17:00,
2013-05-04 06:22:00,51.7,49.5,29.90,ENE,75,4.6,4.6,92,0.02,-RA,,0.02,WeatherDisplay:10.37,2013-05-04 10:22:00,
2013-05-04 06:27:00,51.7,49.7,29.91,East,86,1.2,1.2,93,0.02,-RA,,0.03,WeatherDisplay:10.37,2013-05-04 10:27:00,
2013-05-04 06:32:00,51.6,49.6,29.91,ENE,60,3.5,3.5,93,0.02,-RA,,0.03,WeatherDisplay:10.37,2013-05-04 10:32:00,
2013-05-04 06:37:00,51.6,49.9,29.91,East,84,3.5,3.5,94,0.02,-RA,,0.03,WeatherDisplay:10.37,2013-05-04 10:37:00,
2013-05-04 06:42:00,51.6,49.9,29.90,ENE,62,2.3,2.3,94,0.03,-RA,,0.04,WeatherDisplay:10.37,2013-05-04 10:42:00,
2013-05-04 06:47:00,51.5,49.8,29.90,East,84,5.0,5.0,94,0.02,-RA,,0.04,WeatherDisplay:10.37,2013-05-04 10:47:00,
2013-05-04 06:52:00,51.5,49.8,29.90,NNE,24,3.5,3.5,94,0.02,-RA,,0.04,WeatherDisplay:10.37,2013-05-04 10:52:00,
2013-05-04 06:57:00,51.2,49.5,29.90,NE,46,5.8,5.8,94,0.03,-RA,,0.05,WeatherDisplay:10.37,2013-05-04 10:57:00,
2013-05-04 07:02:00,50.9,49.2,29.90,East,96,9.2,9.2,94,0.03,-RA,,0.05,WeatherDisplay:10.37,2013-05-04 11:02:00,
2013-05-04 07:07:00,50.5,48.6,29.91,ENE,60,4.6,4.6,93,0.04,-RA,,0.06,WeatherDisplay:10.37,2013-05-04 11:07:00,
2013-05-04 07:12:00,50.2,48.3,29.90,NE,34,5.0,5.0,93,0.04,-RA,,0.06,WeatherDisplay:10.37,2013-05-04 11:12:00,
2013-05-04 07:17:00,49.9,48.0,29.90,ENE,76,4.6,4.6,93,0.05,-RA,,0.07,WeatherDisplay:10.37,2013-05-04 11:17:00,
2013-05-04 07:22:00,49.7,48.0,29.90,East,84,4.6,4.6,94,0.05,-RA,,0.07,WeatherDisplay:10.37,2013-05-04 11:22:00,
2013-05-04 07:27:00,49.5,47.8,29.90,NE,43,4.6,4.6,94,0.04,-RA,,0.07,WeatherDisplay:10.37,2013-05-04 11:27:00,
2013-05-04 07:32:00,49.5,47.8,29.90,ENE,73,9.2,9.2,94,0.04,-RA,,0.07,WeatherDisplay:10.37,2013-05-04 11:32:00,
2013-05-04 07:37:00,49.4,47.7,29.90,ENE,69,5.8,5.8,94,0.05,-RA,,0.08,WeatherDisplay:10.37,2013-05-04 11:37:00,
2013-05-04 07:42:00,49.4,47.7,29.91,ENE,73,8.1,8.1,94,0.04,-RA,,0.08,WeatherDisplay:10.37,2013-05-04 11:42:00,
2013-05-04 07:47:00,49.4,47.7,29.91,NE,56,4.6,4.6,94,0.04,-RA,,0.08,WeatherDisplay:10.37,2013-05-04 11:47:00,
2013-05-04 07:52:00,49.4,47.7,29.91,East,87,3.5,3.5,94,0.04,-RA,,0.08,WeatherDisplay:10.37,2013-05-04 11:52:00,
2013-05-04 07:57:00,49.4,47.7,29.91,ESE,109,6.9,6.9,94,0.03,-RA,,0.08,WeatherDisplay:10.37,2013-05-04 11:57:00,
2013-05-04 08:02:00,49.4,48.0,29.91,ENE,78,5.8,5.8,95,0.03,OVC,,0.08,WeatherDisplay:10.37,2013-05-04 12:02:00,
2013-05-04 08:07:00,49.4,47.7,29.91,ENE,73,4.0,4.0,94,0.02,OVC,,0.08,WeatherDisplay:10.37,2013-05-04 12:07:00,
2013-05-04 08:12:00,49.5,48.1,29.91,East,90,3.0,3.0,95,0.02,OVC,,0.08,WeatherDisplay:10.37,2013-05-04 12:12:00,
2013-05-04 08:17:00,49.5,48.1,29.90,East,95,3.5,3.5,95,0.01,OVC,,0.09,WeatherDisplay:10.37,2013-05-04 12:17:00,
2013-05-04 08:22:00,49.5,48.1,29.90,ENE,76,4.6,4.6,95,0.02,RA,,0.09,WeatherDisplay:10.37,2013-05-04 12:22:00,
2013-05-04 08:27:00,49.5,48.1,29.90,ENE,63,3.5,3.5,95,0.02,RA,,0.09,WeatherDisplay:10.37,2013-05-04 12:27:00,
2013-05-04 08:33:00,49.6,48.2,29.90,ENE,77,3.5,3.5,95,0.02,-RA,,0.09,WeatherDisplay:10.37,2013-05-04 12:33:00,
2013-05-04 08:38:00,49.6,48.2,29.89,ENE,74,6.9,6.9,95,0.02,-RA,,0.10,WeatherDisplay:10.37,2013-05-04 12:38:00,
2013-05-04 08:43:00,49.7,48.3,29.90,East,98,3.5,3.5,95,0.02,-RA,,0.10,WeatherDisplay:10.37,2013-05-04 12:43:00,
2013-05-04 08:48:00,49.7,48.3,29.90,ENE,67,3.5,3.5,95,0.02,-RA,,0.10,WeatherDisplay:10.37,2013-05-04 12:48:00,
2013-05-04 08:53:00,49.7,48.3,29.90,East,86,3.5,3.5,95,0.02,-RA,,0.10,WeatherDisplay:10.37,2013-05-04 12:53:00,
2013-05-04 08:58:00,49.7,48.3,29.90,NE,37,5.8,5.8,95,0.02,-RA,,0.10,WeatherDisplay:10.37,2013-05-04 12:58:00,
2013-05-04 09:03:00,49.8,48.4,29.91,NE,35,3.5,3.5,95,0.02,-RA,,0.10,WeatherDisplay:10.37,2013-05-04 13:03:00,
2013-05-04 09:04:00,49.8,48.4,29.90,East,81,3.5,3.5,95,0.02,-RA,,0.10,WeatherDisplay:10.37,2013-05-04 13:04:00,
2013-05-04 09:09:00,49.8,48.4,29.90,NE,55,3.5,3.5,95,0.03,-RA,,0.11,WeatherDisplay:10.37,2013-05-04 13:09:00,
2013-05-04 09:14:00,49.8,48.4,29.90,East,83,3.5,3.5,95,0.03,-RA,,0.11,WeatherDisplay:10.37,2013-05-04 13:14:00,
2013-05-04 09:19:00,49.9,48.5,29.90,East,84,5.0,5.0,95,0.02,-RA,,0.11,WeatherDisplay:10.37,2013-05-04 13:19:00,
2013-05-04 09:24:00,50.0,48.6,29.90,East,83,3.5,3.5,95,0.02,-RA,,0.11,WeatherDisplay:10.37,2013-05-04 13:24:00,
2013-05-04 09:29:00,50.0,48.6,29.90,ENE,76,5.8,5.8,95,0.03,-RA,,0.12,WeatherDisplay:10.37,2013-05-04 13:29:00,
2013-05-04 09:34:00,50.0,48.6,29.90,ENE,67,8.1,8.1,95,0.03,-RA,,0.12,WeatherDisplay:10.37,2013-05-04 13:34:00,
2013-05-04 09:39:00,50.0,48.6,29.89,NE,56,4.6,4.6,95,0.02,-RA,,0.12,WeatherDisplay:10.37,2013-05-04 13:39:00,
2013-05-04 09:44:00,50.1,48.7,29.89,ENE,62,3.5,3.5,95,0.02,-RA,,0.12,WeatherDisplay:10.37,2013-05-04 13:44:00,
2013-05-04 09:49:00,50.1,48.7,29.89,NE,49,4.6,4.6,95,0.02,-RA,,0.12,WeatherDisplay:10.37,2013-05-04 13:49:00,
2013-05-04 09:54:00,50.1,48.7,29.89,East,96,3.5,3.5,95,0.02,-RA,,0.12,WeatherDisplay:10.37,2013-05-04 13:54:00,
2013-05-04 09:59:00,50.1,48.7,29.89,NE,52,4.6,4.6,95,0.02,-RA,,0.12,WeatherDisplay:10.37,2013-05-04 13:59:00,
2013-05-04 10:04:00,50.0,48.6,29.89,ENE,75,4.6,4.6,95,0.02,-RA,,0.12,WeatherDisplay:10.37,2013-05-04 14:04:00,
2013-05-04 10:09:00,50.0,48.6,29.89,ENE,70,3.5,3.5,95,0.01,-RA,,0.12,WeatherDisplay:10.37,2013-05-04 14:09:00,
2013-05-04 10:14:00,50.0,48.6,29.89,ENE,57,4.0,4.0,95,0.01,-RA,,0.12,WeatherDisplay:10.37,2013-05-04 14:14:00,
2013-05-04 10:19:00,50.0,48.6,29.89,NE,40,4.0,4.0,95,0.01,-RA,,0.12,WeatherDisplay:10.37,2013-05-04 14:19:00,
2013-05-04 10:24:00,50.0,48.6,29.89,East,79,6.9,6.9,95,0.01,-RA,,0.12,WeatherDisplay:10.37,2013-05-04 14:24:00,
2013-05-04 10:29:00,49.9,48.5,29.89,ENE,65,4.6,4.6,95,0.01,-RA,,0.13,WeatherDisplay:10.37,2013-05-04 14:29:00,
2013-05-04 10:34:00,50.0,48.6,29.89,ENE,70,5.8,5.8,95,0.01,-RA,,0.13,WeatherDisplay:10.37,2013-05-04 14:34:00,
2013-05-04 10:39:00,50.0,48.6,29.89,ENE,74,4.0,4.0,95,0.01,-RA,,0.13,WeatherDisplay:10.37,2013-05-04 14:39:00,
2013-05-04 10:44:00,50.1,48.7,29.89,East,97,4.6,4.6,95,0.01,-RA,,0.13,WeatherDisplay:10.37,2013-05-04 14:44:00,
2013-05-04 10:49:00,50.2,48.8,29.89,NE,44,4.0,4.0,95,0.01,-RA,,0.13,WeatherDisplay:10.37,2013-05-04 14:49:00,
2013-05-04 10:54:00,50.2,48.8,29.89,SSW,200,4.0,4.0,95,0.01,-RA,,0.13,WeatherDisplay:10.37,2013-05-04 14:54:00,
2013-05-04 10:59:00,50.2,48.8,29.89,ENE,63,5.8,5.8,95,0.01,-RA,,0.13,WeatherDisplay:10.37,2013-05-04 14:59:00,
2013-05-04 11:04:00,50.3,48.9,29.89,ENE,57,4.6,4.6,95,0.01,-RA,,0.13,WeatherDisplay:10.37,2013-05-04 15:04:00,
2013-05-04 11:09:00,50.2,48.8,29.89,SSE,158,3.5,3.5,95,0.01,-RA,,0.13,WeatherDisplay:10.37,2013-05-04 15:09:00,
2013-05-04 11:14:00,50.3,48.9,29.89,East,82,4.6,4.6,95,0.01,-RA,,0.13,WeatherDisplay:10.37,2013-05-04 15:14:00,
2013-05-04 11:19:00,50.2,48.8,29.89,ESE,116,9.2,9.2,95,0.01,-RA,,0.13,WeatherDisplay:10.37,2013-05-04 15:19:00,
2013-05-04 11:24:00,50.2,48.8,29.89,NNE,31,4.6,4.6,95,0.01,-RA,,0.13,WeatherDisplay:10.37,2013-05-04 15:24:00,
2013-05-04 11:29:00,50.3,48.9,29.89,East,80,5.8,5.8,95,0.00,-RA,,0.13,WeatherDisplay:10.37,2013-05-04 15:29:00,
2013-05-04 11:34:00,50.3,48.9,29.89,East,80,3.5,3.5,95,0.00,-RA,,0.13,WeatherDisplay:10.37,2013-05-04 15:34:00,
2013-05-04 11:39:00,50.3,48.9,29.89,NE,51,3.5,3.5,95,0.00,-RA,,0.13,WeatherDisplay:10.37,2013-05-04 15:39:00,
2013-05-04 11:44:00,50.3,48.9,29.89,NE,46,10.4,10.4,95,0.00,-RA,,0.13,WeatherDisplay:10.37,2013-05-04 15:44:00,
2013-05-04 11:49:00,50.3,48.9,29.88,NE,46,5.0,5.0,95,0.00,-RA,,0.13,WeatherDisplay:10.37,2013-05-04 15:49:00,
2013-05-04 11:54:00,50.4,49.0,29.88,ENE,78,5.0,5.0,95,0.00,-RA,,0.13,WeatherDisplay:10.37,2013-05-04 15:54:00,
2013-05-04 11:59:00,50.4,49.0,29.88,ENE,76,6.9,6.9,95,0.01,-RA,,0.14,WeatherDisplay:10.37,2013-05-04 15:59:00,
2013-05-04 12:04:00,50.5,49.1,29.89,East,99,3.5,3.5,95,0.01,-RA,,0.14,WeatherDisplay:10.37,2013-05-04 16:04:00,
2013-05-04 12:09:00,50.5,49.1,29.88,East,83,3.5,3.5,95,0.01,-RA,,0.14,WeatherDisplay:10.37,2013-05-04 16:09:00,
2013-05-04 12:14:00,50.6,49.2,29.88,East,90,6.9,6.9,95,0.02,-RA,,0.15,WeatherDisplay:10.37,2013-05-04 16:14:00,
2013-05-04 12:19:00,50.6,49.2,29.88,NE,55,2.3,2.3,95,0.02,-RA,,0.15,WeatherDisplay:10.37,2013-05-04 16:19:00,
2013-05-04 12:24:00,50.8,49.4,29.88,ENE,71,3.5,3.5,95,0.02,-RA,,0.16,WeatherDisplay:10.37,2013-05-04 16:24:00,
2013-05-04 12:29:00,50.9,49.5,29.89,ENE,76,3.5,3.5,95,0.03,-RA,,0.16,WeatherDisplay:10.37,2013-05-04 16:29:00,
2013-05-04 12:34:00,51.0,49.6,29.89,East,80,3.5,3.5,95,0.03,-RA,,0.16,WeatherDisplay:10.37,2013-05-04 16:34:00,
2013-05-04 12:39:00,51.0,49.6,29.89,NE,49,6.9,6.9,95,0.03,-RA,,0.16,WeatherDisplay:10.37,2013-05-04 16:39:00,
2013-05-04 12:44:00,51.1,49.7,29.88,NE,54,4.6,4.6,95,0.04,-RA,,0.17,WeatherDisplay:10.37,2013-05-04 16:44:00,
2013-05-04 12:49:00,51.2,49.8,29.87,SE,130,4.6,4.6,95,0.04,-RA,,0.17,WeatherDisplay:10.37,2013-05-04 16:49:00,
2013-05-04 12:54:00,51.3,49.9,29.87,East,97,3.5,3.5,95,0.04,-RA,,0.17,WeatherDisplay:10.37,2013-05-04 16:54:00,
2013-05-04 12:59:00,51.3,49.9,29.86,ENE,65,4.0,4.0,95,0.03,-RA,,0.17,WeatherDisplay:10.37,2013-05-04 16:59:00,
2013-05-04 13:04:00,51.4,50.0,29.86,ENE,69,3.5,3.5,95,0.03,-RA,,0.17,WeatherDisplay:10.37,2013-05-04 17:04:00,
2013-05-04 13:09:00,51.6,50.2,29.86,ENE,69,3.5,3.5,95,0.03,-RA,,0.17,WeatherDisplay:10.37,2013-05-04 17:09:00,
2013-05-04 13:14:00,51.7,50.3,29.86,NE,35,6.9,6.9,95,0.02,-RA,,0.17,WeatherDisplay:10.37,2013-05-04 17:14:00,
2013-05-04 13:19:00,51.8,50.4,29.85,ENE,65,3.5,3.5,95,0.02,-RA,,0.17,WeatherDisplay:10.37,2013-05-04 17:19:00,
2013-05-04 13:24:00,51.9,50.5,29.85,East,88,3.5,3.5,95,0.02,-RA,,0.17,WeatherDisplay:10.37,2013-05-04 17:24:00,
2013-05-04 13:29:00,51.9,50.5,29.85,ENE,76,4.6,4.6,95,0.01,-RA,,0.17,WeatherDisplay:10.37,2013-05-04 17:29:00,
2013-05-04 13:34:00,51.9,50.5,29.85,NE,46,3.5,3.5,95,0.01,-RA,,0.17,WeatherDisplay:10.37,2013-05-04 17:34:00,
2013-05-04 13:39:00,51.9,50.5,29.86,East,101,5.8,5.8,95,0.01,-RA,,0.17,WeatherDisplay:10.37,2013-05-04 17:39:00,
2013-05-04 13:44:00,52.0,50.6,29.85,ENE,73,3.5,3.5,95,0.01,-RA,,0.18,WeatherDisplay:10.37,2013-05-04 17:44:00,
2013-05-04 13:49:00,52.1,50.7,29.85,ENE,78,3.5,3.5,95,0.01,-RA,,0.18,WeatherDisplay:10.37,2013-05-04 17:49:00,
2013-05-04 13:54:00,52.2,50.8,29.85,East,93,5.0,5.0,95,0.01,-RA,,0.18,WeatherDisplay:10.37,2013-05-04 17:54:00,
2013-05-04 13:59:00,52.2,50.8,29.85,ENE,76,4.6,4.6,95,0.01,-RA,,0.18,WeatherDisplay:10.37,2013-05-04 17:59:00,
2013-05-04 14:04:00,52.2,50.8,29.85,SSE,165,6.9,6.9,95,0.01,-RA,,0.18,WeatherDisplay:10.37,2013-05-04 18:04:00,
2013-05-04 14:09:00,52.2,50.8,29.85,NE,49,2.3,2.3,95,0.01,-RA,,0.18,WeatherDisplay:10.37,2013-05-04 18:09:00,
2013-05-04 14:14:00,52.2,50.8,29.85,NE,44,3.5,3.5,95,0.01,-RA,,0.18,WeatherDisplay:10.37,2013-05-04 18:14:00,
2013-05-04 14:19:00,52.2,50.8,29.85,ENE,69,3.5,3.5,95,0.01,-RA,,0.18,WeatherDisplay:10.37,2013-05-04 18:19:00,
2013-05-04 14:24:00,52.1,50.7,29.86,WSW,246,3.5,3.5,95,0.02,-RA,,0.19,WeatherDisplay:10.37,2013-05-04 18:24:00,
2013-05-04 14:29:00,52.2,50.8,29.89,West,267,1.0,0.0,95,0.03,-RA,,0.20,WeatherDisplay:10.37,2013-05-04 18:29:00,
2013-05-04 14:34:00,52.3,50.9,29.91,SW,223,3.0,3.0,95,0.04,-RA,,0.21,WeatherDisplay:10.37,2013-05-04 18:34:00,
2013-05-04 14:39:00,52.3,50.9,29.91,NNW,346,9.2,9.2,95,0.05,-RA,,0.22,WeatherDisplay:10.37,2013-05-04 18:39:00,
2013-05-04 14:44:00,52.3,50.9,29.91,SW,225,1.2,1.2,95,0.08,-RA,,0.26,WeatherDisplay:10.37,2013-05-04 18:44:00,
2013-05-04 14:49:00,52.3,50.9,29.89,SSW,203,2.0,2.0,95,0.13,-RA,,0.31,WeatherDisplay:10.37,2013-05-04 18:49:00,
2013-05-04 14:54:00,52.3,50.9,29.88,ENE,64,1.2,1.2,95,0.16,-RA,,0.34,WeatherDisplay:10.37,2013-05-04 18:54:00,
2013-05-04 14:59:00,52.3,50.9,29.89,East,98,0.0,0.0,95,0.17,-RA,,0.35,WeatherDisplay:10.37,2013-05-04 18:59:00,
2013-05-04 15:04:00,52.4,51.0,29.88,East,93,2.3,2.3,95,0.20,-RA,,0.38,WeatherDisplay:10.37,2013-05-04 19:04:00,
2013-05-04 15:09:00,52.5,51.1,29.85,ENE,76,2.3,2.3,95,0.20,-RA,,0.38,WeatherDisplay:10.37,2013-05-04 19:09:00,
2013-05-04 15:14:00,52.5,51.1,29.86,ENE,74,2.3,2.3,95,0.21,-RA,,0.39,WeatherDisplay:10.37,2013-05-04 19:14:00,
2013-05-04 15:19:00,52.5,51.1,29.87,ENE,69,2.3,2.3,95,0.22,-RA,,0.40,WeatherDisplay:10.37,2013-05-04 19:19:00,
2013-05-04 15:24:00,52.5,51.1,29.87,ENE,74,1.2,1.2,95,0.22,-RA,,0.41,WeatherDisplay:10.37,2013-05-04 19:24:00,
2013-05-04 15:29:00,52.5,51.1,29.87,ENE,74,0.0,0.0,95,0.21,-RA,,0.41,WeatherDisplay:10.37,2013-05-04 19:29:00,
2013-05-04 15:34:00,52.5,51.1,29.88,ENE,74,0.0,0.0,95,0.21,-RA,,0.42,WeatherDisplay:10.37,2013-05-04 19:34:00,
2013-05-04 15:39:00,52.5,51.1,29.89,SE,142,0.0,0.0,95,0.21,-RA,,0.43,WeatherDisplay:10.37,2013-05-04 19:39:00,
2013-05-04 15:44:00,52.6,51.2,29.89,WSW,240,3.5,3.5,95,0.20,-RA,,0.46,WeatherDisplay:10.37,2013-05-04 19:44:00,
2013-05-04 15:49:00,52.6,51.2,29.87,WSW,240,0.0,0.0,95,0.17,-RA,,0.49,WeatherDisplay:10.37,2013-05-04 19:49:00,
2013-05-04 15:54:00,52.6,51.5,29.86,WSW,240,0.0,0.0,96,0.17,-RA,,0.51,WeatherDisplay:10.37,2013-05-04 19:54:00,
2013-05-04 15:59:00,52.6,51.5,29.85,WSW,240,0.0,0.0,96,0.18,-RA,,0.53,WeatherDisplay:10.37,2013-05-04 19:59:00,
2013-05-04 16:04:00,52.7,51.6,29.86,WSW,240,0.0,0.0,96,0.17,RA,,0.55,WeatherDisplay:10.37,2013-05-04 20:04:00,
2013-05-04 16:09:00,52.7,51.6,29.87,WSW,240,0.0,0.0,96,0.18,RA,,0.56,WeatherDisplay:10.37,2013-05-04 20:09:00,
2013-05-04 16:14:00,52.8,51.7,29.89,WSW,238,2.3,2.3,96,0.19,-RA,,0.58,WeatherDisplay:10.37,2013-05-04 20:14:00,
2013-05-04 16:19:00,52.9,51.8,29.89,NNE,26,1.0,1.0,96,0.21,-RA,,0.61,WeatherDisplay:10.37,2013-05-04 20:19:00,
2013-05-04 16:24:00,52.9,51.8,29.88,NE,38,0.0,0.0,96,0.26,RA,,0.67,WeatherDisplay:10.37,2013-05-04 20:24:00,
2013-05-04 16:29:00,52.8,51.7,29.87,NE,38,2.3,2.3,96,0.29,RA,,0.70,WeatherDisplay:10.37,2013-05-04 20:29:00,
2013-05-04 16:34:00,52.8,51.7,29.88,SW,221,2.3,2.3,96,0.30,-RA,,0.72,WeatherDisplay:10.37,2013-05-04 20:34:00,
2013-05-04 16:39:00,52.8,51.7,29.90,SW,221,0.0,0.0,96,0.30,-RA,,0.73,WeatherDisplay:10.37,2013-05-04 20:39:00,
2013-05-04 16:44:00,52.8,51.7,29.88,SW,221,0.0,0.0,96,0.28,-RA,,0.74,WeatherDisplay:10.37,2013-05-04 20:44:00,
2013-05-04 16:49:00,52.8,51.7,29.86,East,99,1.2,1.2,96,0.28,-RA,,0.76,WeatherDisplay:10.37,2013-05-04 20:49:00,
2013-05-04 16:54:00,53.0,51.9,29.87,East,98,1.2,1.2,96,0.26,-RA,,0.77,WeatherDisplay:10.37,2013-05-04 20:54:00,
2013-05-04 16:59:00,53.0,51.9,29.88,East,98,0.0,0.0,96,0.24,-RA,,0.77,WeatherDisplay:10.37,2013-05-04 20:59:00,
2013-05-04 17:04:00,53.1,52.0,29.88,SSE,153,0.0,0.0,96,0.23,-RA,,0.78,WeatherDisplay:10.37,2013-05-04 21:04:00,
2013-05-04 17:09:00,53.0,51.9,29.88,SSE,153,0.0,0.0,96,0.22,-RA,,0.78,WeatherDisplay:10.37,2013-05-04 21:09:00,
2013-05-04 17:14:00,53.1,52.0,29.86,East,92,2.3,2.3,96,0.21,-RA,,0.79,WeatherDisplay:10.37,2013-05-04 21:14:00,
2013-05-04 17:19:00,53.1,52.0,29.86,ENE,75,0.0,0.0,96,0.20,-RA,,0.81,WeatherDisplay:10.37,2013-05-04 21:19:00,
2013-05-04 17:24:00,53.2,52.1,29.87,ENE,75,0.0,0.0,96,0.15,-RA,,0.82,WeatherDisplay:10.37,2013-05-04 21:24:00,
2013-05-04 17:29:00,53.2,52.1,29.87,ENE,75,0.0,0.0,96,0.13,-RA,,0.83,WeatherDisplay:10.37,2013-05-04 21:29:00,
2013-05-04 17:34:00,53.2,52.1,29.86,ENE,75,0.0,0.0,96,0.11,-RA,,0.83,WeatherDisplay:10.37,2013-05-04 21:34:00,
2013-05-04 17:39:00,53.4,52.3,29.85,ENE,59,2.0,2.0,96,0.10,-RA,,0.83,WeatherDisplay:10.37,2013-05-04 21:39:00,
2013-05-04 17:44:00,53.6,52.5,29.85,NE,54,3.5,3.5,96,0.09,-RA,,0.83,WeatherDisplay:10.37,2013-05-04 21:44:00,
2013-05-04 17:49:00,53.6,52.5,29.85,NE,56,1.2,1.2,96,0.07,-RA,,0.83,WeatherDisplay:10.37,2013-05-04 21:49:00,
2013-05-04 17:54:00,53.5,52.4,29.86,NE,55,2.3,2.3,96,0.06,-RA,,0.83,WeatherDisplay:10.37,2013-05-04 21:54:00,
2013-05-04 17:59:00,53.5,52.4,29.86,NE,55,0.0,0.0,96,0.06,-RA,,0.83,WeatherDisplay:10.37,2013-05-04 21:59:00,
2013-05-04 18:04:00,53.4,52.3,29.86,NE,55,0.0,0.0,96,0.05,-RA,,0.83,WeatherDisplay:10.37,2013-05-04 22:04:00,
2013-05-04 18:09:00,53.4,52.3,29.86,NE,55,0.0,0.0,96,0.05,-RA,,0.83,WeatherDisplay:10.37,2013-05-04 22:09:00,
2013-05-04 18:14:00,53.4,52.3,29.86,NE,55,0.0,0.0,96,0.05,-RA,,0.84,WeatherDisplay:10.37,2013-05-04 22:14:00,
2013-05-04 18:19:00,53.4,52.3,29.86,ENE,66,1.0,1.0,96,0.03,-RA,,0.84,WeatherDisplay:10.37,2013-05-04 22:19:00,
2013-05-04 18:24:00,53.3,52.2,29.86,ENE,67,2.3,2.3,96,0.02,-RA,,0.84,WeatherDisplay:10.37,2013-05-04 22:24:00,
2013-05-04 18:29:00,53.2,52.1,29.85,ENE,67,1.2,1.2,96,0.02,-RA,,0.86,WeatherDisplay:10.37,2013-05-04 22:29:00,
2013-05-04 18:34:00,53.2,52.1,29.85,ENE,60,2.3,2.3,96,0.03,-RA,,0.86,WeatherDisplay:10.37,2013-05-04 22:34:00,
2013-05-04 18:39:00,53.2,52.1,29.85,ENE,76,2.3,2.3,96,0.03,-RA,,0.86,WeatherDisplay:10.37,2013-05-04 22:39:00,
2013-05-04 18:44:00,53.2,52.1,29.85,ENE,75,1.2,1.2,96,0.03,-RA,,0.86,WeatherDisplay:10.37,2013-05-04 22:44:00,
2013-05-04 18:49:00,53.3,52.2,29.85,NE,51,3.5,3.5,96,0.04,-RA,,0.87,WeatherDisplay:10.37,2013-05-04 22:49:00,
2013-05-04 18:54:00,53.3,52.2,29.84,NE,44,3.5,3.5,96,0.04,-RA,,0.87,WeatherDisplay:10.37,2013-05-04 22:54:00,
2013-05-04 18:59:00,53.3,52.2,29.84,ENE,78,2.3,2.3,96,0.04,-RA,,0.87,WeatherDisplay:10.37,2013-05-04 22:59:00,
2013-05-04 19:04:00,53.2,52.1,29.84,ENE,65,2.3,2.3,96,0.04,-RA,,0.87,WeatherDisplay:10.37,2013-05-04 23:04:00,
2013-05-04 19:09:00,53.2,52.1,29.84,ESE,104,1.2,1.2,96,0.04,-RA,,0.87,WeatherDisplay:10.37,2013-05-04 23:09:00,
2013-05-04 19:14:00,53.1,52.0,29.85,NE,40,1.2,1.2,96,0.04,-RA,,0.88,WeatherDisplay:10.37,2013-05-04 23:14:00,
2013-05-04 19:19:00,53.1,52.0,29.85,ENE,63,2.3,2.3,96,0.04,-RA,,0.88,WeatherDisplay:10.37,2013-05-04 23:19:00,
2013-05-04 19:24:00,53.1,52.0,29.84,East,96,3.5,3.5,96,0.04,-RA,,0.88,WeatherDisplay:10.37,2013-05-04 23:24:00,
2013-05-04 19:29:00,53.0,51.9,29.84,ENE,68,3.5,3.5,96,0.04,-RA,,0.89,WeatherDisplay:10.37,2013-05-04 23:29:00,
2013-05-04 19:34:00,53.0,51.9,29.83,East,84,3.5,3.5,96,0.03,-RA,,0.89,WeatherDisplay:10.37,2013-05-04 23:34:00,
2013-05-04 19:39:00,53.0,51.9,29.83,ESE,105,3.5,3.5,96,0.03,-RA,,0.89,WeatherDisplay:10.37,2013-05-04 23:39:00,
2013-05-04 19:44:00,53.0,51.9,29.84,ENE,77,2.3,2.3,96,0.04,-RA,,0.90,WeatherDisplay:10.37,2013-05-04 23:44:00,
2013-05-04 19:49:00,52.9,51.8,29.83,NE,56,3.5,3.5,96,0.03,-RA,,0.90,WeatherDisplay:10.37,2013-05-04 23:49:00,
2013-05-04 19:54:00,52.9,51.8,29.83,NE,46,2.3,2.3,96,0.03,-RA,,0.90,WeatherDisplay:10.37,2013-05-04 23:54:00,
2013-05-04 19:59:00,52.9,51.8,29.84,NE,55,3.5,3.5,96,0.03,-RA,,0.90,WeatherDisplay:10.37,2013-05-04 23:59:00,
2013-05-04 20:04:00,52.9,51.8,29.83,ENE,69,1.2,1.2,96,0.03,-RA,,0.90,WeatherDisplay:10.37,2013-05-05 00:04:00,
2013-05-04 20:09:00,52.9,51.8,29.84,ENE,67,2.3,2.3,96,0.03,-RA,,0.90,WeatherDisplay:10.37,2013-05-05 00:09:00,
2013-05-04 20:14:00,52.9,51.8,29.84,ENE,68,2.3,2.3,96,0.03,-RA,,0.91,WeatherDisplay:10.37,2013-05-05 00:14:00,
2013-05-04 20:19:00,52.8,51.7,29.83,ENE,74,2.3,2.3,96,0.04,-RA,,0.92,WeatherDisplay:10.37,2013-05-05 00:19:00,
2013-05-04 20:24:00,52.8,51.7,29.84,ESE,102,5.8,5.8,96,0.04,-RA,,0.92,WeatherDisplay:10.37,2013-05-05 00:24:00,
2013-05-04 20:29:00,52.8,51.7,29.84,ENE,64,2.3,2.3,96,0.03,-RA,,0.92,WeatherDisplay:10.37,2013-05-05 00:29:00,
2013-05-04 20:34:00,52.8,51.7,29.83,NE,34,2.3,2.3,96,0.04,-RA,,0.93,WeatherDisplay:10.37,2013-05-05 00:34:00,
2013-05-04 20:39:00,52.8,51.7,29.83,ENE,57,2.3,2.3,96,0.04,-RA,,0.93,WeatherDisplay:10.37,2013-05-05 00:39:00,
2013-05-04 20:44:00,52.8,51.7,29.83,ENE,68,3.5,3.5,96,0.04,-RA,,0.94,WeatherDisplay:10.37,2013-05-05 00:44:00,
2013-05-04 20:49:00,52.8,51.7,29.83,ENE,74,3.5,3.5,96,0.04,-RA,,0.94,WeatherDisplay:10.37,2013-05-05 00:49:00,
2013-05-04 20:54:00,52.8,51.7,29.83,NE,52,3.5,3.5,96,0.04,-RA,,0.94,WeatherDisplay:10.37,2013-05-05 00:54:00,
2013-05-04 20:59:00,52.8,51.7,29.83,NE,55,2.3,2.3,96,0.05,-RA,,0.95,WeatherDisplay:10.37,2013-05-05 00:59:00,
2013-05-04 21:04:00,52.8,51.7,29.83,ENE,66,2.3,2.3,96,0.05,-RA,,0.95,WeatherDisplay:10.37,2013-05-05 01:04:00,
2013-05-04 21:09:00,52.9,51.8,29.84,ENE,70,2.3,2.3,96,0.05,-RA,,0.95,WeatherDisplay:10.37,2013-05-05 01:09:00,
2013-05-04 21:14:00,52.9,51.8,29.84,East,86,3.5,3.5,96,0.05,-RA,,0.96,WeatherDisplay:10.37,2013-05-05 01:14:00,
2013-05-04 21:19:00,52.9,51.8,29.84,ESE,120,2.3,2.3,96,0.05,-RA,,0.97,WeatherDisplay:10.37,2013-05-05 01:19:00,
2013-05-04 21:24:00,52.9,51.8,29.84,ENE,72,2.3,2.3,96,0.06,-RA,,0.98,WeatherDisplay:10.37,2013-05-05 01:24:00,
2013-05-04 21:29:00,52.8,51.7,29.84,NE,45,3.5,3.5,96,0.06,-RA,,0.98,WeatherDisplay:10.37,2013-05-05 01:29:00,
2013-05-04 21:34:00,52.8,51.7,29.84,NE,44,3.5,3.5,96,0.06,-RA,,1.00,WeatherDisplay:10.37,2013-05-05 01:34:00,
2013-05-04 21:39:00,52.9,51.8,29.84,ENE,67,3.5,3.5,96,0.07,-RA,,1.00,WeatherDisplay:10.37,2013-05-05 01:39:00,
2013-05-04 21:44:00,52.9,51.8,29.84,ENE,75,1.2,0.0,96,0.07,-RA,,1.01,WeatherDisplay:10.37,2013-05-05 01:44:00,
2013-05-04 21:49:00,52.9,51.8,29.85,ENE,65,3.5,3.5,96,0.08,-RA,,1.02,WeatherDisplay:10.37,2013-05-05 01:49:00,
2013-05-04 21:54:00,52.9,51.8,29.84,ENE,67,2.3,2.3,96,0.08,-RA,,1.02,WeatherDisplay:10.37,2013-05-05 01:54:00,
2013-05-04 21:59:00,52.9,51.8,29.85,NE,50,2.3,2.3,96,0.07,-RA,,1.02,WeatherDisplay:10.37,2013-05-05 01:59:00,
2013-05-04 22:04:00,53.0,51.9,29.84,ENE,71,2.3,2.3,96,0.07,-RA,,1.02,WeatherDisplay:10.37,2013-05-05 02:04:00,
2013-05-04 22:09:00,53.0,51.9,29.85,ENE,67,3.5,3.5,96,0.09,-RA,,1.04,WeatherDisplay:10.37,2013-05-05 02:09:00,
2013-05-04 22:14:00,53.0,51.9,29.85,East,86,3.5,3.5,96,0.09,-RA,,1.05,WeatherDisplay:10.37,2013-05-05 02:14:00,
2013-05-04 22:19:00,53.0,51.9,29.84,ENE,77,2.3,2.3,96,0.09,-RA,,1.06,WeatherDisplay:10.37,2013-05-05 02:19:00,
2013-05-04 22:24:00,53.1,52.0,29.84,ENE,76,3.5,3.5,96,0.10,-RA,,1.08,WeatherDisplay:10.37,2013-05-05 02:24:00,
2013-05-04 22:29:00,53.1,52.0,29.84,ENE,76,4.6,4.6,96,0.11,-RA,,1.09,WeatherDisplay:10.37,2013-05-05 02:29:00,
2013-05-04 22:34:00,53.1,52.0,29.84,ENE,74,3.5,3.5,96,0.11,-RA,,1.10,WeatherDisplay:10.37,2013-05-05 02:34:00,
2013-05-04 22:39:00,53.2,52.1,29.84,NE,54,4.6,4.6,96,0.10,-RA,,1.10,WeatherDisplay:10.37,2013-05-05 02:39:00,
2013-05-04 22:44:00,53.2,52.1,29.84,ENE,65,3.5,3.5,96,0.09,RA,,1.10,WeatherDisplay:10.37,2013-05-05 02:44:00,
2013-05-04 22:49:00,53.2,52.1,29.84,ENE,75,2.3,2.3,96,0.09,RA,,1.11,WeatherDisplay:10.37,2013-05-05 02:49:00,
2013-05-04 22:54:00,53.3,52.2,29.84,ENE,73,2.3,2.3,96,0.09,-RA,,1.11,WeatherDisplay:10.37,2013-05-05 02:54:00,
2013-05-04 22:59:00,53.3,52.2,29.84,ENE,67,2.3,2.3,96,0.10,-RA,,1.12,WeatherDisplay:10.37,2013-05-05 02:59:00,
2013-05-04 23:04:00,53.3,52.2,29.84,ENE,67,1.2,1.2,96,0.10,-RA,,1.12,WeatherDisplay:10.37,2013-05-05 03:04:00,
2013-05-04 23:09:00,53.4,52.3,29.84,ENE,67,1.2,0.0,96,0.09,-RA,,1.13,WeatherDisplay:10.37,2013-05-05 03:09:00,
2013-05-04 23:14:00,53.4,52.3,29.84,ENE,63,3.5,3.5,96,0.09,-RA,,1.14,WeatherDisplay:10.37,2013-05-05 03:14:00,
2013-05-04 23:19:00,53.4,52.3,29.84,ENE,76,2.3,2.3,96,0.09,-RA,,1.15,WeatherDisplay:10.37,2013-05-05 03:19:00,
2013-05-04 23:24:00,53.4,52.3,29.84,ENE,76,0.0,0.0,96,0.08,RA,,1.16,WeatherDisplay:10.37,2013-05-05 03:24:00,
2013-05-04 23:29:00,53.4,52.3,29.83,ENE,76,0.0,0.0,96,0.08,RA,,1.17,WeatherDisplay:10.37,2013-05-05 03:29:00,
2013-05-04 23:34:00,53.4,52.3,29.83,ENE,76,0.0,0.0,96,0.09,RA,,1.19,WeatherDisplay:10.37,2013-05-05 03:34:00,
2013-05-04 23:39:00,53.5,52.4,29.83,ENE,76,0.0,0.0,96,0.10,RA,,1.20,WeatherDisplay:10.37,2013-05-05 03:39:00,
2013-05-04 23:44:00,53.5,52.4,29.83,ENE,76,0.0,0.0,96,0.10, +RA,,1.20,WeatherDisplay:10.37,2013-05-05 03:44:00,
2013-05-04 23:49:00,53.5,52.4,29.83,ENE,76,0.0,0.0,96,0.11, +RA,,1.22,WeatherDisplay:10.37,2013-05-05 03:49:00,
2013-05-04 23:54:00,53.5,52.4,29.84,ENE,76,0.0,0.0,96,0.13,RA,,1.24,WeatherDisplay:10.37,2013-05-05 03:54:00,
2013-05-04 23:59:00,53.5,52.4,29.83,ENE,76,0.0,0.0,96,0.14,RA,,1.26,WeatherDisplay:10.37,2013-05-05 03:59:00,